world map with GLO marked

GLO - Airport

This information may not be accurate or current and is not valid for navigation or flight planning. No warranty of fitness for any purpose is made or implied.

flag of Englandflag of United Kingdom

Donate via PayPal

Additional information is available on the NEW Great Circle Mapper

Location
City:  Gloucester/Cheltenham, Gloucestershire, England, United Kingdom
Name:Gloucestershire
ICAO / IATA:EGBJ / GLO

Details
Type:Airport (Aerodrome, Airfield)
Use:Public/Civil
Latitude:51°53'39"N (51.894167)
Longitude:2°10'02"W (-2.167221)
Datum:WGS 1984
Elevation:101 ft (31 m)
Runways:3
Longest:4656 × 112 ft (1419 × 34 m)

Time
Timezone:UTC+0 (DST+3)
Local Time:

Weather
METAR:EGBJ  041350Z 27004KT 230V310 9999 FEW010 SCT018 12/08 Q1015
TAF:EGBJ  (expired)

Related Locations
Nearby:
Farthest:NZDC: 11901 mi / 19153 km
Dunedin [City Heliport], OTA, NZ

Find:

   beyond  
but within

Other Information
Maps:
Sources:

  


 


Great Circle Mapper   Great Circle Mapper
Great Circle Mapper FAQ   Great Circle Mapper FAQ
  Karl's Home Page
KLSē   KLSē Home
   GC on Facebook
Airlines of the World   Airlines of the World
Donate via PayPal


Copyright © 2004-2019, Karl L. Swartz. All rights reserved.
All trademarks mentioned herein belong to their respective owners.

Please see credits for attribution and copyright information.

Karl Swartz <karl@kls2.com>
  Powered by FreeBSD
Valid HTML 4.01!
Labeled with ICRA
hCard Microformat
Geo Microformat